Bonanza City, Colorado
Current Conditions -  °F | °C
As of 7:33 PM on Wednesday 22 Oct 2014 (Local Time) from K04V Reporting Station
Overcast Overcast  
Wind Chill: 50°   Ceiling: 10000
Heat Index: 50°   Visibility: 10mi
Dew Point: 36°   Wind: 3mph
Humidity: 58%   Direction: 10°N
Pressure: 30.27"   Gusts: NA
Location:  38.2967°N, 106.07°W
Report Text: K04V 230133Z AUTO 01003KT 10SM OVC100 10/02 A3027 RMK AO2
Loading
Personal Weather Stations






























Interactive Weather Map
Tropical Storm Tracking
New forecast layout! Learn more

10-Day Weather Forecast

Advertisements
Track Severe Weather on mobile